sensor_id;sensor_type;location;lat;lon;timestamp;P1;durP1;ratioP1;P2;durP2;ratioP2
10705;SDS011;5404;42.656;23.336;2023-05-16T00:00:23;34.33;;;18.92;;
10705;SDS011;5404;42.656;23.336;2023-05-16T00:02:49;27.95;;;17.48;;
10705;SDS011;5404;42.656;23.336;2023-05-16T00:05:15;27.35;;;18.65;;
10705;SDS011;5404;42.656;23.336;2023-05-16T00:07:41;33.90;;;19.17;;
10705;SDS011;5404;42.656;23.336;2023-05-16T00:10:09;24.67;;;17.17;;
10705;SDS011;5404;42.656;23.336;2023-05-16T00:12:37;30.58;;;18.45;;
10705;SDS011;5404;42.656;23.336;2023-05-16T00:15:06;27.70;;;17.30;;
10705;SDS011;5404;42.656;23.336;2023-05-16T00:17:34;35.38;;;17.75;;
10705;SDS011;5404;42.656;23.336;2023-05-16T00:20:01;30.02;;;17.88;;
10705;SDS011;5404;42.656;23.336;2023-05-16T00:22:32;25.95;;;17.88;;
10705;SDS011;5404;42.656;23.336;2023-05-16T00:24:58;29.60;;;17.77;;
10705;SDS011;5404;42.656;23.336;2023-05-16T00:27:23;28.13;;;16.75;;
10705;SDS011;5404;42.656;23.336;2023-05-16T00:29:49;32.15;;;18.85;;
10705;SDS011;5404;42.656;23.336;2023-05-16T00:32:16;39.75;;;18.58;;
10705;SDS011;5404;42.656;23.336;2023-05-16T00:34:43;28.77;;;18.25;;
10705;SDS011;5404;42.656;23.336;2023-05-16T00:37:08;26.30;;;17.33;;
10705;SDS011;5404;42.656;23.336;2023-05-16T00:39:34;27.42;;;18.02;;
10705;SDS011;5404;42.656;23.336;2023-05-16T00:41:59;27.33;;;18.00;;
10705;SDS011;5404;42.656;23.336;2023-05-16T00:44:25;27.50;;;17.35;;
10705;SDS011;5404;42.656;23.336;2023-05-16T00:46:50;29.70;;;17.73;;
10705;SDS011;5404;42.656;23.336;2023-05-16T00:49:17;31.60;;;15.93;;
10705;SDS011;5404;42.656;23.336;2023-05-16T00:51:43;35.05;;;18.30;;
10705;SDS011;5404;42.656;23.336;2023-05-16T00:54:09;25.23;;;15.57;;
10705;SDS011;5404;42.656;23.336;2023-05-16T00:56:36;32.65;;;16.83;;
10705;SDS011;5404;42.656;23.336;2023-05-16T00:59:01;27.63;;;17.70;;
10705;SDS011;5404;42.656;23.336;2023-05-16T01:01:27;23.40;;;16.65;;
10705;SDS011;5404;42.656;23.336;2023-05-16T01:03:53;28.77;;;16.98;;
10705;SDS011;5404;42.656;23.336;2023-05-16T01:06:19;30.95;;;18.42;;
10705;SDS011;5404;42.656;23.336;2023-05-16T01:08:45;32.70;;;16.88;;
10705;SDS011;5404;42.656;23.336;2023-05-16T01:11:16;30.13;;;17.73;;
10705;SDS011;5404;42.656;23.336;2023-05-16T01:14:00;30.55;;;17.70;;
10705;SDS011;5404;42.656;23.336;2023-05-16T01:16:49;27.77;;;18.17;;
10705;SDS011;5404;42.656;23.336;2023-05-16T01:19:28;28.55;;;17.90;;
10705;SDS011;5404;42.656;23.336;2023-05-16T01:22:15;26.65;;;17.17;;
10705;SDS011;5404;42.656;23.336;2023-05-16T01:28:06;31.40;;;16.90;;
10705;SDS011;5404;42.656;23.336;2023-05-16T01:30:34;26.85;;;17.42;;
10705;SDS011;5404;42.656;23.336;2023-05-16T01:33:02;24.05;;;16.63;;
10705;SDS011;5404;42.656;23.336;2023-05-16T01:35:28;26.30;;;16.73;;
10705;SDS011;5404;42.656;23.336;2023-05-16T01:37:58;29.58;;;17.75;;
10705;SDS011;5404;42.656;23.336;2023-05-16T01:46:20;32.03;;;18.15;;
10705;SDS011;5404;42.656;23.336;2023-05-16T01:52:07;27.10;;;18.15;;
10705;SDS011;5404;42.656;23.336;2023-05-16T01:54:36;29.80;;;18.13;;
10705;SDS011;5404;42.656;23.336;2023-05-16T01:57:03;33.13;;;17.55;;
10705;SDS011;5404;42.656;23.336;2023-05-16T01:59:32;25.48;;;16.42;;
10705;SDS011;5404;42.656;23.336;2023-05-16T02:02:00;28.67;;;19.00;;
10705;SDS011;5404;42.656;23.336;2023-05-16T02:04:25;30.45;;;19.25;;
10705;SDS011;5404;42.656;23.336;2023-05-16T02:06:52;26.77;;;16.33;;
10705;SDS011;5404;42.656;23.336;2023-05-16T02:09:17;24.35;;;17.15;;
10705;SDS011;5404;42.656;23.336;2023-05-16T02:11:43;28.90;;;17.52;;
10705;SDS011;5404;42.656;23.336;2023-05-16T02:14:10;28.30;;;16.80;;
10705;SDS011;5404;42.656;23.336;2023-05-16T02:16:36;25.88;;;16.73;;
10705;SDS011;5404;42.656;23.336;2023-05-16T02:19:02;36.35;;;15.95;;
10705;SDS011;5404;42.656;23.336;2023-05-16T02:21:28;23.48;;;15.55;;
10705;SDS011;5404;42.656;23.336;2023-05-16T02:23:53;30.33;;;16.65;;
10705;SDS011;5404;42.656;23.336;2023-05-16T02:26:18;23.02;;;15.85;;
10705;SDS011;5404;42.656;23.336;2023-05-16T02:28:44;24.52;;;15.80;;
10705;SDS011;5404;42.656;23.336;2023-05-16T02:31:10;22.10;;;14.18;;
10705;SDS011;5404;42.656;23.336;2023-05-16T02:33:35;24.15;;;14.70;;
10705;SDS011;5404;42.656;23.336;2023-05-16T02:36:01;25.83;;;14.63;;
10705;SDS011;5404;42.656;23.336;2023-05-16T02:38:26;19.48;;;13.55;;
10705;SDS011;5404;42.656;23.336;2023-05-16T02:40:52;22.27;;;14.45;;
10705;SDS011;5404;42.656;23.336;2023-05-16T02:43:18;22.35;;;12.25;;
10705;SDS011;5404;42.656;23.336;2023-05-16T02:45:44;24.77;;;14.20;;
10705;SDS011;5404;42.656;23.336;2023-05-16T02:48:09;18.00;;;12.30;;
10705;SDS011;5404;42.656;23.336;2023-05-16T02:50:36;17.77;;;12.55;;
10705;SDS011;5404;42.656;23.336;2023-05-16T02:53:04;19.90;;;13.25;;
10705;SDS011;5404;42.656;23.336;2023-05-16T02:55:30;25.90;;;12.57;;
10705;SDS011;5404;42.656;23.336;2023-05-16T02:57:55;20.83;;;13.35;;
10705;SDS011;5404;42.656;23.336;2023-05-16T03:00:21;21.40;;;12.43;;
10705;SDS011;5404;42.656;23.336;2023-05-16T03:02:50;20.60;;;12.35;;
10705;SDS011;5404;42.656;23.336;2023-05-16T03:05:17;25.65;;;12.30;;
10705;SDS011;5404;42.656;23.336;2023-05-16T03:07:42;25.90;;;13.38;;
10705;SDS011;5404;42.656;23.336;2023-05-16T03:10:08;25.02;;;12.20;;
10705;SDS011;5404;42.656;23.336;2023-05-16T03:12:35;21.95;;;13.10;;
10705;SDS011;5404;42.656;23.336;2023-05-16T03:15:01;21.25;;;13.13;;
10705;SDS011;5404;42.656;23.336;2023-05-16T03:17:26;26.10;;;12.98;;
10705;SDS011;5404;42.656;23.336;2023-05-16T03:19:52;23.55;;;13.60;;
10705;SDS011;5404;42.656;23.336;2023-05-16T03:22:17;25.30;;;12.43;;
10705;SDS011;5404;42.656;23.336;2023-05-16T03:24:43;23.10;;;13.23;;
10705;SDS011;5404;42.656;23.336;2023-05-16T03:27:10;24.08;;;12.93;;
10705;SDS011;5404;42.656;23.336;2023-05-16T03:29:35;22.58;;;13.32;;
10705;SDS011;5404;42.656;23.336;2023-05-16T03:32:02;20.65;;;12.45;;
10705;SDS011;5404;42.656;23.336;2023-05-16T03:34:29;18.90;;;13.38;;
10705;SDS011;5404;42.656;23.336;2023-05-16T03:36:54;22.17;;;12.70;;
10705;SDS011;5404;42.656;23.336;2023-05-16T03:39:20;25.08;;;12.98;;
10705;SDS011;5404;42.656;23.336;2023-05-16T03:41:45;22.45;;;12.27;;
10705;SDS011;5404;42.656;23.336;2023-05-16T03:44:11;22.15;;;11.88;;
10705;SDS011;5404;42.656;23.336;2023-05-16T03:46:36;17.50;;;13.07;;
10705;SDS011;5404;42.656;23.336;2023-05-16T03:49:02;23.75;;;14.32;;
10705;SDS011;5404;42.656;23.336;2023-05-16T03:51:28;21.60;;;13.98;;
10705;SDS011;5404;42.656;23.336;2023-05-16T03:53:54;22.95;;;14.05;;
10705;SDS011;5404;42.656;23.336;2023-05-16T03:56:20;21.85;;;14.20;;
10705;SDS011;5404;42.656;23.336;2023-05-16T03:58:45;25.85;;;13.63;;
10705;SDS011;5404;42.656;23.336;2023-05-16T04:01:11;24.08;;;14.70;;
10705;SDS011;5404;42.656;23.336;2023-05-16T04:03:37;23.55;;;12.77;;
10705;SDS011;5404;42.656;23.336;2023-05-16T04:06:02;24.05;;;13.40;;
10705;SDS011;5404;42.656;23.336;2023-05-16T04:08:28;22.35;;;14.10;;
10705;SDS011;5404;42.656;23.336;2023-05-16T04:10:54;29.48;;;14.55;;
10705;SDS011;5404;42.656;23.336;2023-05-16T04:13:19;20.23;;;13.20;;
10705;SDS011;5404;42.656;23.336;2023-05-16T04:15:45;32.13;;;14.02;;
10705;SDS011;5404;42.656;23.336;2023-05-16T04:18:12;23.27;;;13.32;;
10705;SDS011;5404;42.656;23.336;2023-05-16T04:20:37;24.00;;;14.07;;
10705;SDS011;5404;42.656;23.336;2023-05-16T04:23:03;26.60;;;15.38;;
10705;SDS011;5404;42.656;23.336;2023-05-16T04:25:30;29.35;;;14.00;;
10705;SDS011;5404;42.656;23.336;2023-05-16T04:27:55;21.02;;;13.73;;
10705;SDS011;5404;42.656;23.336;2023-05-16T04:30:22;25.95;;;13.52;;
10705;SDS011;5404;42.656;23.336;2023-05-16T04:32:47;24.35;;;14.18;;
10705;SDS011;5404;42.656;23.336;2023-05-16T04:35:14;23.52;;;14.15;;
10705;SDS011;5404;42.656;23.336;2023-05-16T04:37:40;24.58;;;14.05;;
10705;SDS011;5404;42.656;23.336;2023-05-16T04:40:06;27.30;;;13.88;;
10705;SDS011;5404;42.656;23.336;2023-05-16T04:42:33;31.40;;;12.73;;
10705;SDS011;5404;42.656;23.336;2023-05-16T04:44:59;22.33;;;14.05;;
10705;SDS011;5404;42.656;23.336;2023-05-16T04:47:25;24.27;;;13.50;;
10705;SDS011;5404;42.656;23.336;2023-05-16T04:49:50;36.03;;;15.18;;
10705;SDS011;5404;42.656;23.336;2023-05-16T04:52:16;27.75;;;14.40;;
10705;SDS011;5404;42.656;23.336;2023-05-16T04:54:41;21.23;;;12.85;;
10705;SDS011;5404;42.656;23.336;2023-05-16T04:57:06;30.98;;;12.70;;
10705;SDS011;5404;42.656;23.336;2023-05-16T04:59:32;24.27;;;13.23;;
10705;SDS011;5404;42.656;23.336;2023-05-16T05:01:57;22.98;;;13.88;;
10705;SDS011;5404;42.656;23.336;2023-05-16T05:04:23;22.83;;;13.00;;
10705;SDS011;5404;42.656;23.336;2023-05-16T05:06:49;26.67;;;13.15;;
10705;SDS011;5404;42.656;23.336;2023-05-16T05:09:14;26.35;;;12.70;;
10705;SDS011;5404;42.656;23.336;2023-05-16T05:11:40;26.13;;;14.18;;
10705;SDS011;5404;42.656;23.336;2023-05-16T05:14:05;26.52;;;13.95;;
10705;SDS011;5404;42.656;23.336;2023-05-16T05:16:30;21.60;;;14.02;;
10705;SDS011;5404;42.656;23.336;2023-05-16T05:18:57;26.88;;;12.30;;
10705;SDS011;5404;42.656;23.336;2023-05-16T05:21:22;29.27;;;15.45;;
10705;SDS011;5404;42.656;23.336;2023-05-16T05:23:49;24.85;;;13.98;;
10705;SDS011;5404;42.656;23.336;2023-05-16T05:26:15;29.92;;;12.90;;
10705;SDS011;5404;42.656;23.336;2023-05-16T05:28:43;21.20;;;11.90;;
10705;SDS011;5404;42.656;23.336;2023-05-16T05:31:08;19.85;;;12.32;;
10705;SDS011;5404;42.656;23.336;2023-05-16T05:33:34;19.42;;;12.77;;
10705;SDS011;5404;42.656;23.336;2023-05-16T05:36:00;25.52;;;13.40;;
10705;SDS011;5404;42.656;23.336;2023-05-16T06:51:44;19.33;;;10.82;;
10705;SDS011;5404;42.656;23.336;2023-05-16T06:54:09;15.23;;;9.23;;
10705;SDS011;5404;42.656;23.336;2023-05-16T06:56:35;19.58;;;9.73;;
10705;SDS011;5404;42.656;23.336;2023-05-16T06:59:00;25.85;;;9.88;;
10705;SDS011;5404;42.656;23.336;2023-05-16T07:01:26;13.38;;;9.20;;
10705;SDS011;5404;42.656;23.336;2023-05-16T07:03:51;16.25;;;9.45;;
10705;SDS011;5404;42.656;23.336;2023-05-16T07:06:19;17.75;;;9.55;;
10705;SDS011;5404;42.656;23.336;2023-05-16T07:08:44;17.80;;;9.43;;
10705;SDS011;5404;42.656;23.336;2023-05-16T07:11:10;23.63;;;10.45;;
10705;SDS011;5404;42.656;23.336;2023-05-16T07:13:35;15.63;;;9.55;;
10705;SDS011;5404;42.656;23.336;2023-05-16T07:16:01;21.25;;;10.48;;
10705;SDS011;5404;42.656;23.336;2023-05-16T07:18:27;19.85;;;9.43;;
10705;SDS011;5404;42.656;23.336;2023-05-16T07:20:53;18.60;;;9.98;;
10705;SDS011;5404;42.656;23.336;2023-05-16T07:23:19;24.50;;;9.57;;
10705;SDS011;5404;42.656;23.336;2023-05-16T07:25:44;33.30;;;9.48;;
10705;SDS011;5404;42.656;23.336;2023-05-16T07:28:10;23.95;;;11.00;;
10705;SDS011;5404;42.656;23.336;2023-05-16T07:30:35;23.40;;;11.15;;
10705;SDS011;5404;42.656;23.336;2023-05-16T07:33:01;20.20;;;10.45;;
10705;SDS011;5404;42.656;23.336;2023-05-16T07:35:28;23.65;;;12.02;;
10705;SDS011;5404;42.656;23.336;2023-05-16T07:37:53;23.67;;;10.20;;
10705;SDS011;5404;42.656;23.336;2023-05-16T07:40:18;23.48;;;11.25;;
10705;SDS011;5404;42.656;23.336;2023-05-16T07:42:49;23.98;;;11.07;;
10705;SDS011;5404;42.656;23.336;2023-05-16T07:45:15;25.52;;;12.10;;
10705;SDS011;5404;42.656;23.336;2023-05-16T07:47:43;23.45;;;10.70;;
10705;SDS011;5404;42.656;23.336;2023-05-16T07:50:09;23.23;;;10.68;;
10705;SDS011;5404;42.656;23.336;2023-05-16T07:52:35;27.48;;;10.65;;
10705;SDS011;5404;42.656;23.336;2023-05-16T07:55:01;25.40;;;10.35;;
10705;SDS011;5404;42.656;23.336;2023-05-16T07:57:27;19.33;;;9.90;;
10705;SDS011;5404;42.656;23.336;2023-05-16T07:59:54;31.40;;;11.57;;
10705;SDS011;5404;42.656;23.336;2023-05-16T08:02:21;28.38;;;10.40;;
10705;SDS011;5404;42.656;23.336;2023-05-16T08:04:50;22.15;;;10.73;;
10705;SDS011;5404;42.656;23.336;2023-05-16T08:07:16;25.08;;;10.40;;
10705;SDS011;5404;42.656;23.336;2023-05-16T08:09:41;18.73;;;11.13;;
10705;SDS011;5404;42.656;23.336;2023-05-16T08:12:07;31.40;;;12.10;;
10705;SDS011;5404;42.656;23.336;2023-05-16T08:14:33;20.58;;;12.23;;
10705;SDS011;5404;42.656;23.336;2023-05-16T08:16:58;22.08;;;10.38;;
10705;SDS011;5404;42.656;23.336;2023-05-16T08:19:25;26.90;;;10.63;;
10705;SDS011;5404;42.656;23.336;2023-05-16T08:21:51;22.13;;;11.18;;
10705;SDS011;5404;42.656;23.336;2023-05-16T08:24:16;21.48;;;10.43;;
10705;SDS011;5404;42.656;23.336;2023-05-16T08:26:42;28.40;;;10.48;;
10705;SDS011;5404;42.656;23.336;2023-05-16T08:29:08;17.95;;;10.63;;
10705;SDS011;5404;42.656;23.336;2023-05-16T08:31:35;25.25;;;10.75;;
10705;SDS011;5404;42.656;23.336;2023-05-16T08:34:00;17.95;;;8.35;;
10705;SDS011;5404;42.656;23.336;2023-05-16T08:36:26;18.60;;;9.98;;
10705;SDS011;5404;42.656;23.336;2023-05-16T08:38:52;24.30;;;10.40;;
10705;SDS011;5404;42.656;23.336;2023-05-16T08:41:17;21.13;;;9.82;;
10705;SDS011;5404;42.656;23.336;2023-05-16T08:43:43;17.33;;;8.45;;
10705;SDS011;5404;42.656;23.336;2023-05-16T08:46:09;23.10;;;10.63;;
10705;SDS011;5404;42.656;23.336;2023-05-16T08:48:35;32.50;;;10.73;;
10705;SDS011;5404;42.656;23.336;2023-05-16T08:51:01;17.75;;;8.65;;
10705;SDS011;5404;42.656;23.336;2023-05-16T08:53:31;15.05;;;6.53;;
10705;SDS011;5404;42.656;23.336;2023-05-16T08:56:06;17.33;;;6.88;;
10705;SDS011;5404;42.656;23.336;2023-05-16T08:58:34;21.07;;;11.63;;
10705;SDS011;5404;42.656;23.336;2023-05-16T09:01:01;18.73;;;8.68;;
10705;SDS011;5404;42.656;23.336;2023-05-16T09:03:30;14.93;;;7.50;;
10705;SDS011;5404;42.656;23.336;2023-05-16T09:05:56;15.15;;;8.63;;
10705;SDS011;5404;42.656;23.336;2023-05-16T09:08:22;14.73;;;8.23;;
10705;SDS011;5404;42.656;23.336;2023-05-16T09:10:49;23.92;;;7.97;;
10705;SDS011;5404;42.656;23.336;2023-05-16T09:13:14;21.40;;;9.45;;
10705;SDS011;5404;42.656;23.336;2023-05-16T09:15:40;31.40;;;8.82;;
10705;SDS011;5404;42.656;23.336;2023-05-16T09:18:10;18.33;;;7.75;;
10705;SDS011;5404;42.656;23.336;2023-05-16T09:20:41;21.02;;;8.57;;
10705;SDS011;5404;42.656;23.336;2023-05-16T09:23:10;30.60;;;8.05;;
10705;SDS011;5404;42.656;23.336;2023-05-16T09:25:36;15.63;;;6.28;;
10705;SDS011;5404;42.656;23.336;2023-05-16T09:28:04;16.55;;;8.38;;
10705;SDS011;5404;42.656;23.336;2023-05-16T09:30:30;36.40;;;9.13;;
10705;SDS011;5404;42.656;23.336;2023-05-16T09:32:57;20.70;;;9.30;;
10705;SDS011;5404;42.656;23.336;2023-05-16T09:35:23;20.33;;;8.85;;
10705;SDS011;5404;42.656;23.336;2023-05-16T09:37:49;27.10;;;10.32;;
10705;SDS011;5404;42.656;23.336;2023-05-16T09:42:46;19.70;;;8.63;;
10705;SDS011;5404;42.656;23.336;2023-05-16T09:45:27;18.48;;;8.70;;
10705;SDS011;5404;42.656;23.336;2023-05-16T09:47:52;20.98;;;9.25;;
10705;SDS011;5404;42.656;23.336;2023-05-16T09:50:18;18.88;;;8.18;;
10705;SDS011;5404;42.656;23.336;2023-05-16T09:52:43;18.33;;;8.88;;
10705;SDS011;5404;42.656;23.336;2023-05-16T09:55:09;22.75;;;9.48;;
10705;SDS011;5404;42.656;23.336;2023-05-16T09:57:38;19.27;;;9.35;;
10705;SDS011;5404;42.656;23.336;2023-05-16T10:00:05;15.85;;;9.43;;
10705;SDS011;5404;42.656;23.336;2023-05-16T10:02:34;18.33;;;9.30;;
10705;SDS011;5404;42.656;23.336;2023-05-16T10:05:01;21.83;;;8.93;;
10705;SDS011;5404;42.656;23.336;2023-05-16T10:07:26;22.20;;;9.65;;
10705;SDS011;5404;42.656;23.336;2023-05-16T10:09:55;20.45;;;8.95;;
10705;SDS011;5404;42.656;23.336;2023-05-16T10:12:20;17.63;;;8.98;;
10705;SDS011;5404;42.656;23.336;2023-05-16T10:14:59;30.10;;;9.80;;
10705;SDS011;5404;42.656;23.336;2023-05-16T10:17:27;17.98;;;8.48;;
10705;SDS011;5404;42.656;23.336;2023-05-16T10:19:56;26.50;;;11.93;;
10705;SDS011;5404;42.656;23.336;2023-05-16T10:24:57;17.40;;;8.27;;
10705;SDS011;5404;42.656;23.336;2023-05-16T10:27:28;21.95;;;8.50;;
10705;SDS011;5404;42.656;23.336;2023-05-16T10:29:55;28.77;;;10.45;;
10705;SDS011;5404;42.656;23.336;2023-05-16T10:32:22;22.55;;;10.15;;
10705;SDS011;5404;42.656;23.336;2023-05-16T10:34:49;15.05;;;9.35;;
10705;SDS011;5404;42.656;23.336;2023-05-16T10:37:15;17.35;;;8.52;;
10705;SDS011;5404;42.656;23.336;2023-05-16T10:39:41;14.63;;;8.40;;
10705;SDS011;5404;42.656;23.336;2023-05-16T10:42:06;21.25;;;9.52;;
10705;SDS011;5404;42.656;23.336;2023-05-16T10:44:32;17.10;;;9.50;;
10705;SDS011;5404;42.656;23.336;2023-05-16T10:46:59;22.02;;;8.70;;
10705;SDS011;5404;42.656;23.336;2023-05-16T10:54:38;17.77;;;8.15;;
10705;SDS011;5404;42.656;23.336;2023-05-16T10:57:06;25.13;;;9.75;;
10705;SDS011;5404;42.656;23.336;2023-05-16T10:59:44;11.88;;;6.97;;
10705;SDS011;5404;42.656;23.336;2023-05-16T11:02:24;16.23;;;9.13;;
10705;SDS011;5404;42.656;23.336;2023-05-16T11:04:54;20.10;;;7.68;;
10705;SDS011;5404;42.656;23.336;2023-05-16T11:07:23;22.75;;;8.10;;
10705;SDS011;5404;42.656;23.336;2023-05-16T11:10:13;16.55;;;7.93;;
10705;SDS011;5404;42.656;23.336;2023-05-16T11:12:48;14.98;;;7.75;;
10705;SDS011;5404;42.656;23.336;2023-05-16T11:15:25;26.65;;;9.55;;
10705;SDS011;5404;42.656;23.336;2023-05-16T11:18:08;18.15;;;8.60;;
10705;SDS011;5404;42.656;23.336;2023-05-16T11:20:39;19.02;;;8.95;;
10705;SDS011;5404;42.656;23.336;2023-05-16T11:25:56;15.70;;;7.65;;
10705;SDS011;5404;42.656;23.336;2023-05-16T11:28:24;17.27;;;8.20;;
10705;SDS011;5404;42.656;23.336;2023-05-16T11:30:51;15.82;;;8.57;;
10705;SDS011;5404;42.656;23.336;2023-05-16T11:33:22;22.60;;;9.95;;
10705;SDS011;5404;42.656;23.336;2023-05-16T11:36:04;22.98;;;11.57;;
10705;SDS011;5404;42.656;23.336;2023-05-16T11:38:31;21.23;;;8.43;;
10705;SDS011;5404;42.656;23.336;2023-05-16T11:41:05;28.63;;;9.95;;
10705;SDS011;5404;42.656;23.336;2023-05-16T11:43:42;27.38;;;9.35;;
10705;SDS011;5404;42.656;23.336;2023-05-16T11:46:11;22.45;;;7.90;;
10705;SDS011;5404;42.656;23.336;2023-05-16T11:48:39;23.50;;;8.07;;
10705;SDS011;5404;42.656;23.336;2023-05-16T11:51:05;17.48;;;8.00;;
10705;SDS011;5404;42.656;23.336;2023-05-16T11:53:32;16.13;;;7.90;;
10705;SDS011;5404;42.656;23.336;2023-05-16T11:55:58;15.95;;;8.45;;
10705;SDS011;5404;42.656;23.336;2023-05-16T11:58:27;18.50;;;9.00;;
10705;SDS011;5404;42.656;23.336;2023-05-16T12:00:54;24.77;;;9.55;;
10705;SDS011;5404;42.656;23.336;2023-05-16T12:03:19;16.70;;;8.70;;
10705;SDS011;5404;42.656;23.336;2023-05-16T12:05:51;14.38;;;8.30;;
10705;SDS011;5404;42.656;23.336;2023-05-16T12:08:19;17.75;;;8.23;;
10705;SDS011;5404;42.656;23.336;2023-05-16T12:10:46;14.85;;;7.43;;
10705;SDS011;5404;42.656;23.336;2023-05-16T12:13:16;16.63;;;8.50;;
10705;SDS011;5404;42.656;23.336;2023-05-16T12:15:46;16.63;;;7.68;;
10705;SDS011;5404;42.656;23.336;2023-05-16T12:18:12;20.33;;;8.57;;
10705;SDS011;5404;42.656;23.336;2023-05-16T12:20:42;17.13;;;8.15;;
10705;SDS011;5404;42.656;23.336;2023-05-16T12:23:09;15.23;;;7.85;;
10705;SDS011;5404;42.656;23.336;2023-05-16T12:25:36;23.63;;;8.77;;
10705;SDS011;5404;42.656;23.336;2023-05-16T12:28:07;21.27;;;7.53;;
10705;SDS011;5404;42.656;23.336;2023-05-16T12:30:34;34.05;;;9.88;;
10705;SDS011;5404;42.656;23.336;2023-05-16T12:33:07;25.13;;;10.35;;
10705;SDS011;5404;42.656;23.336;2023-05-16T12:35:43;23.45;;;8.77;;
10705;SDS011;5404;42.656;23.336;2023-05-16T12:38:11;15.90;;;7.72;;
10705;SDS011;5404;42.656;23.336;2023-05-16T12:40:38;24.50;;;8.63;;
10705;SDS011;5404;42.656;23.336;2023-05-16T12:43:19;33.80;;;10.05;;
10705;SDS011;5404;42.656;23.336;2023-05-16T12:45:50;28.02;;;9.50;;
10705;SDS011;5404;42.656;23.336;2023-05-16T12:48:17;18.35;;;9.73;;
10705;SDS011;5404;42.656;23.336;2023-05-16T12:50:43;17.95;;;8.77;;
10705;SDS011;5404;42.656;23.336;2023-05-16T12:53:13;26.92;;;11.77;;
10705;SDS011;5404;42.656;23.336;2023-05-16T12:55:40;22.83;;;9.70;;
10705;SDS011;5404;42.656;23.336;2023-05-16T12:58:06;28.75;;;9.88;;
10705;SDS011;5404;42.656;23.336;2023-05-16T13:00:32;20.50;;;9.25;;
10705;SDS011;5404;42.656;23.336;2023-05-16T13:02:58;27.25;;;10.48;;
10705;SDS011;5404;42.656;23.336;2023-05-16T13:05:23;22.90;;;9.00;;
10705;SDS011;5404;42.656;23.336;2023-05-16T13:07:49;32.80;;;9.75;;
10705;SDS011;5404;42.656;23.336;2023-05-16T13:10:18;23.75;;;9.40;;
10705;SDS011;5404;42.656;23.336;2023-05-16T13:12:44;23.60;;;9.05;;
10705;SDS011;5404;42.656;23.336;2023-05-16T13:15:11;26.33;;;9.45;;
10705;SDS011;5404;42.656;23.336;2023-05-16T13:17:38;27.02;;;10.48;;
10705;SDS011;5404;42.656;23.336;2023-05-16T13:20:04;25.92;;;10.75;;
10705;SDS011;5404;42.656;23.336;2023-05-16T13:22:34;23.95;;;10.10;;
10705;SDS011;5404;42.656;23.336;2023-05-16T13:25:00;30.83;;;9.80;;
10705;SDS011;5404;42.656;23.336;2023-05-16T13:27:28;20.63;;;9.68;;
10705;SDS011;5404;42.656;23.336;2023-05-16T13:29:55;24.83;;;10.15;;
10705;SDS011;5404;42.656;23.336;2023-05-16T13:32:21;28.60;;;8.43;;
10705;SDS011;5404;42.656;23.336;2023-05-16T13:34:46;25.58;;;8.98;;
10705;SDS011;5404;42.656;23.336;2023-05-16T13:37:11;26.55;;;10.07;;
10705;SDS011;5404;42.656;23.336;2023-05-16T13:39:37;31.85;;;10.93;;
10705;SDS011;5404;42.656;23.336;2023-05-16T13:42:02;27.50;;;12.45;;
10705;SDS011;5404;42.656;23.336;2023-05-16T13:44:28;27.00;;;11.20;;
10705;SDS011;5404;42.656;23.336;2023-05-16T13:46:55;43.97;;;13.48;;
10705;SDS011;5404;42.656;23.336;2023-05-16T13:49:21;25.63;;;10.63;;
10705;SDS011;5404;42.656;23.336;2023-05-16T13:51:48;35.25;;;12.45;;
10705;SDS011;5404;42.656;23.336;2023-05-16T13:54:16;29.85;;;14.20;;
10705;SDS011;5404;42.656;23.336;2023-05-16T13:56:42;44.13;;;14.13;;
10705;SDS011;5404;42.656;23.336;2023-05-16T13:59:08;30.58;;;14.05;;
10705;SDS011;5404;42.656;23.336;2023-05-16T14:01:34;32.00;;;14.55;;
10705;SDS011;5404;42.656;23.336;2023-05-16T14:04:00;31.85;;;14.43;;
10705;SDS011;5404;42.656;23.336;2023-05-16T14:06:26;36.53;;;13.52;;
10705;SDS011;5404;42.656;23.336;2023-05-16T14:08:52;29.92;;;13.93;;
10705;SDS011;5404;42.656;23.336;2023-05-16T14:11:18;39.22;;;14.57;;
10705;SDS011;5404;42.656;23.336;2023-05-16T14:13:46;35.83;;;15.55;;
10705;SDS011;5404;42.656;23.336;2023-05-16T14:16:13;34.97;;;15.77;;
10705;SDS011;5404;42.656;23.336;2023-05-16T14:18:40;35.45;;;13.68;;
10705;SDS011;5404;42.656;23.336;2023-05-16T14:21:05;36.10;;;14.15;;
10705;SDS011;5404;42.656;23.336;2023-05-16T14:23:30;29.60;;;14.60;;
10705;SDS011;5404;42.656;23.336;2023-05-16T14:25:56;27.60;;;14.02;;
10705;SDS011;5404;42.656;23.336;2023-05-16T14:28:23;29.55;;;14.35;;
10705;SDS011;5404;42.656;23.336;2023-05-16T14:30:48;28.45;;;13.68;;
10705;SDS011;5404;42.656;23.336;2023-05-16T14:33:15;31.08;;;14.65;;
10705;SDS011;5404;42.656;23.336;2023-05-16T14:35:40;36.90;;;13.60;;
10705;SDS011;5404;42.656;23.336;2023-05-16T14:38:06;26.83;;;14.00;;
10705;SDS011;5404;42.656;23.336;2023-05-16T14:40:32;29.10;;;13.77;;
10705;SDS011;5404;42.656;23.336;2023-05-16T14:42:58;30.02;;;13.90;;
10705;SDS011;5404;42.656;23.336;2023-05-16T14:45:24;39.00;;;15.07;;
10705;SDS011;5404;42.656;23.336;2023-05-16T14:47:49;38.25;;;15.05;;
10705;SDS011;5404;42.656;23.336;2023-05-16T14:50:16;37.40;;;15.18;;
10705;SDS011;5404;42.656;23.336;2023-05-16T14:52:42;33.30;;;15.80;;
10705;SDS011;5404;42.656;23.336;2023-05-16T14:55:07;40.67;;;16.02;;
10705;SDS011;5404;42.656;23.336;2023-05-16T14:57:32;38.70;;;17.45;;
10705;SDS011;5404;42.656;23.336;2023-05-16T15:00:00;30.40;;;15.70;;
10705;SDS011;5404;42.656;23.336;2023-05-16T15:02:25;34.33;;;16.92;;
10705;SDS011;5404;42.656;23.336;2023-05-16T15:04:52;39.88;;;18.73;;
10705;SDS011;5404;42.656;23.336;2023-05-16T15:07:18;36.58;;;18.73;;
10705;SDS011;5404;42.656;23.336;2023-05-16T15:09:45;49.20;;;20.00;;
10705;SDS011;5404;42.656;23.336;2023-05-16T15:12:11;35.58;;;20.52;;
10705;SDS011;5404;42.656;23.336;2023-05-16T15:14:36;44.80;;;21.77;;
10705;SDS011;5404;42.656;23.336;2023-05-16T15:17:02;50.78;;;20.17;;
10705;SDS011;5404;42.656;23.336;2023-05-16T15:19:28;38.95;;;18.33;;
10705;SDS011;5404;42.656;23.336;2023-05-16T15:21:54;39.50;;;19.80;;
10705;SDS011;5404;42.656;23.336;2023-05-16T15:24:20;34.53;;;18.58;;
10705;SDS011;5404;42.656;23.336;2023-05-16T15:26:45;34.28;;;18.05;;
10705;SDS011;5404;42.656;23.336;2023-05-16T15:29:12;41.35;;;20.17;;
10705;SDS011;5404;42.656;23.336;2023-05-16T15:31:37;53.00;;;22.08;;
10705;SDS011;5404;42.656;23.336;2023-05-16T15:34:03;36.50;;;21.92;;
10705;SDS011;5404;42.656;23.336;2023-05-16T15:36:30;40.83;;;23.38;;
10705;SDS011;5404;42.656;23.336;2023-05-16T15:38:55;46.03;;;22.35;;
10705;SDS011;5404;42.656;23.336;2023-05-16T15:41:21;46.80;;;22.77;;
10705;SDS011;5404;42.656;23.336;2023-05-16T15:43:47;57.08;;;22.65;;
10705;SDS011;5404;42.656;23.336;2023-05-16T15:46:12;56.78;;;23.25;;
10705;SDS011;5404;42.656;23.336;2023-05-16T15:48:38;52.60;;;22.77;;
10705;SDS011;5404;42.656;23.336;2023-05-16T15:51:07;39.70;;;21.80;;
10705;SDS011;5404;42.656;23.336;2023-05-16T15:53:33;58.17;;;25.83;;
10705;SDS011;5404;42.656;23.336;2023-05-16T15:56:01;49.50;;;24.77;;
10705;SDS011;5404;42.656;23.336;2023-05-16T15:58:27;45.40;;;25.42;;
10705;SDS011;5404;42.656;23.336;2023-05-16T16:00:52;46.47;;;24.88;;
10705;SDS011;5404;42.656;23.336;2023-05-16T16:03:19;49.70;;;24.20;;